Greenville Spartanburg International Airport
KGSP : now visible

Airfield :











YOU CAN JOIN US ON...

 
LOGIN :

Register | Disclaimer

   EN    FR    IT 

 









Legend :    VFR   Marginal VFR   IFR   Intensive IFR   Very Intensive IFR
Visi :
Ceiling :
>= 8 km
>= 3000ft
5 to 8 km
1000 to 3000 ft
1500m to 5 km
500 to 1000 ft
800 to 1500m
200 to 500 ft
< 800m
< 200 ft
Symbols :   Thunderstorms  Fog  Heavy snow  Heavy precipitations  Wind > 20 kt






- Airport Elevation : 964 ft
- IATA code : GSP


KGSP - Greenville Spartanburg International

CURRENT METAR :
  • 062353Z AUTO 00000KT 10SM CLR 20/12 A3000 RMK AO2 SLP152 60000 T02000122 10289 20200 50003

EXPIRED METARs :
  • 062253Z AUTO 10006KT 10SM FEW095 FEW120 22/12 A3000 RMK AO2 RAE2158 SLP152 P0000 T02220117
  • 062153Z AUTO 01011G20KT 10SM -RA BKN085 BKN110 24/11 A2999 RMK AO2 WSHFT 2056 RAB44 SLP147 P0000 T02390111
  • 062116Z 22011KT 10SM FEW085 28/08 A2999 RMK AO2 WSHFT 2056 LTG DSNT N T02780083

TAF KGSP
Valid from the 07 at 00:00 until the 08 at 00:00 UTC


062334Z 0700/0724 VRB05KT P6SM VCSH SCT080
FM070400 25003KT P6SM SCT080 BKN200
FM071500 24010G17KT P6SM SCT070 BKN250
PROB30 0718/0722 4SM TSRA BR BKN060CB
FM072300 24008KT P6SM SCT060 BKN250



MET'MAP, your aeronautical weather chart ! - Copyright ORBIFLY December 2007 - Disclaimer

ORBIFLY MET'MAP TEAM :

Programming & Development : Alexandra Zaïnal
Concept & original design : Baudouin d'Aumeries
Assistance for programming : Marc-Olivier Méhu
Technical & hardware support : Manuel Goepfert

Contact : metmap@orbifly.com




SOURCES & CREDITS :

   NOAA       Earth
Advisory